• Join FlightAware (Why Join?)
  • Login
  • US Flag 
Rudolph Flight #1: Arrived! 
01:01AM EST


 

Airport Tracker/Info


-or-


 

Live Flight TrackerFlight Track Log ✈ N960DL ✈ 30-Apr-2013 ✈ KECP - KATL

Flight Track Log - Related Links

Times and Time Zones

All times are in EDT time to prevent confusion due to time zone crossing. See the N960DL flight status page for this flight to view local times or setup timezone preferences in your user account.

Time Position Orientation Groundspeed Altitude Reporting Facility
EDT Latitude Longitude Course Direction KTS MPH feet Rate Location/Type
07:41AM 30.6504 -85.6665 19° North  Level FlightAware Approximate
07:42AM 30.7519 -85.6325 21° North  Level FlightAware Approximate
07:42AM 30.4631 -85.6133 23° Northeast 317 365 11,300  Level Jacksonville Center
07:43AM 30.8513 -85.5883 21° North  Level FlightAware Approximate
07:43AM 30.5511 -85.5917 12° North 325 374 12,700  Level Jacksonville Center
07:44AM 30.9516 -85.5471 18° North  Level FlightAware Approximate
07:44AM 30.6603 -85.5683 10° North 359 413 15,700  Level Jacksonville Center
07:45AM 31.0527 -85.5086 18° North  Level FlightAware Approximate
07:45AM 30.7733 -85.5425 11° North 392 451 18,400  Level Jacksonville Center
07:46AM 31.1539 -85.4701 18° North  Level FlightAware Approximate
07:46AM 30.8908 -85.5167 11° North 411 473 20,600  Level Jacksonville Center
07:47AM 31.2549 -85.4309 23° Northeast  Level FlightAware Approximate
07:47AM 31.0125 -85.4886 11° North 433 498 22,900  Level Jacksonville Center
07:48AM 31.1300 -85.4650 10° North 433 498 23,000  Climbing Jacksonville Center
07:49AM 31.2494 -85.4392 10° North 428 493 23,000  Level Jacksonville Center
07:50AM 31.3667 -85.4231 North 428 493 23,000  Level Jacksonville Center
07:52AM 31.6475 -85.3856 North 437 503 23,000  Level Atlanta Center
07:53AM 31.7686 -85.3703 North 437 503 23,000  Level Atlanta Center
07:54AM 31.8878 -85.3522 North 432 497 23,000  Level Atlanta Center
07:55AM 32.0092 -85.3272 10° North 432 497 23,000  Level Atlanta Center
07:56AM 32.1306 -85.2947 13° North 437 503 23,000  Level Atlanta Center
07:57AM 32.2519 -85.2644 12° North 437 503 23,000  Level Atlanta Center
07:58AM 32.3753 -85.2342 12° North 437 503 23,000  Level Atlanta Center
07:59AM 32.4947 -85.2036 12° North 437 503 23,000 -180 Level Atlanta Center
08:00AM 32.6139 -85.1733 12° North 445 512 22,700 -1,500 Descending Atlanta Center
08:01AM 32.7331 -85.1425 12° North 434 499 20,100 -2,580 Descending Atlanta Center
08:02AM 32.8461 -85.1192 10° North 421 484 17,600 -2,220 Descending Atlanta Center
08:03AM 32.9486 -85.0933 12° North 401 461 15,700 -2,100 Descending Atlanta Center
08:04AM 33.0469 -85.0697 11° North 365 420 13,400 -1,860 Descending Atlanta Center
08:05AM 33.1389 -85.0461 12° North 347 399 12,000 -720 Descending Atlanta Center
08:06AM 33.2122 -84.9972 29° Northeast 315 362 12,000 -720 Level Atlanta Center
08:07AM 33.2672 -84.9258 47° Northeast 286 329 10,600 -1,620 Descending Atlanta Center
08:08AM 33.3219 -84.8517 49° Northeast 286 329 8,800 -1,740 Descending Atlanta Center
08:09AM 33.3833 -84.8333 14° North 283 326 7,500 -1,920 Descending Atlanta TRACON
08:10AM 33.4500 -84.8167 12° North 271 312 5,300 -1,800 Descending Atlanta TRACON
08:11AM 33.5333 -84.8167 360° North 262 302 4,000 -720 Descending Atlanta TRACON
08:12AM 33.5833 -84.8167 360° North 218 251 4,000  Level Atlanta TRACON
08:13AM 33.6167 -84.7667 51° Northeast 219 252 4,000  Level Atlanta TRACON
08:14AM 33.6167 -84.7000 90° East 196 226 4,000  Level Atlanta TRACON
08:15AM 33.6167 -84.6500 90° East 194 223 4,000  Level Atlanta TRACON